sensor_id;sensor_type;location;lat;lon;timestamp;temperature;humidity
254;DHT22;590;48.772;8.846;2022-11-18T00:01:19;8.80;99.90
254;DHT22;590;48.772;8.846;2022-11-18T00:03:49;8.80;99.90
254;DHT22;590;48.772;8.846;2022-11-18T00:06:19;8.80;99.90
254;DHT22;590;48.772;8.846;2022-11-18T00:08:48;8.70;99.90
254;DHT22;590;48.772;8.846;2022-11-18T00:11:17;8.80;99.90
254;DHT22;590;48.772;8.846;2022-11-18T00:13:59;8.80;99.90
254;DHT22;590;48.772;8.846;2022-11-18T00:16:47;8.80;99.90
254;DHT22;590;48.772;8.846;2022-11-18T00:19:17;8.80;99.90
254;DHT22;590;48.772;8.846;2022-11-18T00:21:46;8.80;99.90
254;DHT22;590;48.772;8.846;2022-11-18T00:24:14;8.80;99.90
254;DHT22;590;48.772;8.846;2022-11-18T00:26:42;8.80;99.90
254;DHT22;590;48.772;8.846;2022-11-18T00:29:11;8.80;99.90
254;DHT22;590;48.772;8.846;2022-11-18T00:31:39;8.80;99.90
254;DHT22;590;48.772;8.846;2022-11-18T00:34:10;8.80;99.90
254;DHT22;590;48.772;8.846;2022-11-18T00:36:41;8.80;99.90
254;DHT22;590;48.772;8.846;2022-11-18T00:39:09;8.70;99.90
254;DHT22;590;48.772;8.846;2022-11-18T00:41:38;8.70;99.90
254;DHT22;590;48.772;8.846;2022-11-18T00:44:19;8.70;99.90
254;DHT22;590;48.772;8.846;2022-11-18T00:46:47;8.80;99.90
254;DHT22;590;48.772;8.846;2022-11-18T00:49:15;8.80;99.90
254;DHT22;590;48.772;8.846;2022-11-18T00:51:45;8.80;99.90
254;DHT22;590;48.772;8.846;2022-11-18T00:54:13;8.80;99.90
254;DHT22;590;48.772;8.846;2022-11-18T00:56:41;8.90;99.90
254;DHT22;590;48.772;8.846;2022-11-18T00:59:09;8.90;99.90
254;DHT22;590;48.772;8.846;2022-11-18T01:01:37;8.90;99.90
254;DHT22;590;48.772;8.846;2022-11-18T01:04:05;8.90;99.90
254;DHT22;590;48.772;8.846;2022-11-18T01:06:33;8.90;99.90
254;DHT22;590;48.772;8.846;2022-11-18T01:09:03;8.90;99.90
254;DHT22;590;48.772;8.846;2022-11-18T01:11:31;8.90;99.90
254;DHT22;590;48.772;8.846;2022-11-18T01:14:17;8.90;99.90
254;DHT22;590;48.772;8.846;2022-11-18T01:16:45;8.90;99.90
254;DHT22;590;48.772;8.846;2022-11-18T01:19:16;8.90;99.90
254;DHT22;590;48.772;8.846;2022-11-18T01:21:45;8.90;99.90
254;DHT22;590;48.772;8.846;2022-11-18T01:24:15;9.00;99.90
254;DHT22;590;48.772;8.846;2022-11-18T01:26:43;9.00;99.90
254;DHT22;590;48.772;8.846;2022-11-18T01:29:11;8.90;99.90
254;DHT22;590;48.772;8.846;2022-11-18T01:31:39;9.00;99.90
254;DHT22;590;48.772;8.846;2022-11-18T01:34:27;9.00;99.90
254;DHT22;590;48.772;8.846;2022-11-18T01:36:55;9.00;99.90
254;DHT22;590;48.772;8.846;2022-11-18T01:39:25;9.00;99.90
254;DHT22;590;48.772;8.846;2022-11-18T01:41:53;9.00;99.90
254;DHT22;590;48.772;8.846;2022-11-18T01:44:55;9.00;99.90
254;DHT22;590;48.772;8.846;2022-11-18T01:47:24;9.00;99.90
254;DHT22;590;48.772;8.846;2022-11-18T01:49:53;8.90;99.90
254;DHT22;590;48.772;8.846;2022-11-18T01:52:22;8.90;99.90
254;DHT22;590;48.772;8.846;2022-11-18T01:54:54;8.90;99.90
254;DHT22;590;48.772;8.846;2022-11-18T01:57:25;8.90;99.90
254;DHT22;590;48.772;8.846;2022-11-18T01:59:56;8.90;99.90
254;DHT22;590;48.772;8.846;2022-11-18T02:02:25;8.90;99.90
254;DHT22;590;48.772;8.846;2022-11-18T02:04:54;8.90;99.90
254;DHT22;590;48.772;8.846;2022-11-18T02:07:23;9.00;99.90
254;DHT22;590;48.772;8.846;2022-11-18T02:09:55;9.00;99.90
254;DHT22;590;48.772;8.846;2022-11-18T02:12:24;9.00;99.90
254;DHT22;590;48.772;8.846;2022-11-18T02:14:52;9.00;99.90
254;DHT22;590;48.772;8.846;2022-11-18T02:17:30;9.00;99.90
254;DHT22;590;48.772;8.846;2022-11-18T02:20:29;9.00;99.90
254;DHT22;590;48.772;8.846;2022-11-18T02:29:05;8.90;99.90
254;DHT22;590;48.772;8.846;2022-11-18T02:31:39;8.90;99.90
254;DHT22;590;48.772;8.846;2022-11-18T02:34:15;8.90;99.90
254;DHT22;590;48.772;8.846;2022-11-18T02:36:50;8.90;99.90
254;DHT22;590;48.772;8.846;2022-11-18T02:39:21;8.90;99.90
254;DHT22;590;48.772;8.846;2022-11-18T02:41:53;8.90;99.90
254;DHT22;590;48.772;8.846;2022-11-18T02:44:26;8.90;99.90
254;DHT22;590;48.772;8.846;2022-11-18T02:46:59;8.90;99.90
254;DHT22;590;48.772;8.846;2022-11-18T02:49:31;8.90;99.90
254;DHT22;590;48.772;8.846;2022-11-18T02:52:03;8.90;99.90
254;DHT22;590;48.772;8.846;2022-11-18T02:54:32;8.90;99.90
254;DHT22;590;48.772;8.846;2022-11-18T02:57:03;8.90;99.90
254;DHT22;590;48.772;8.846;2022-11-18T02:59:33;8.90;99.90
254;DHT22;590;48.772;8.846;2022-11-18T03:02:01;8.80;99.90
254;DHT22;590;48.772;8.846;2022-11-18T03:04:29;8.80;99.90
254;DHT22;590;48.772;8.846;2022-11-18T03:07:04;8.80;99.90
254;DHT22;590;48.772;8.846;2022-11-18T03:09:38;8.80;99.90
254;DHT22;590;48.772;8.846;2022-11-18T03:12:13;8.80;99.90
254;DHT22;590;48.772;8.846;2022-11-18T03:14:51;8.80;99.90
254;DHT22;590;48.772;8.846;2022-11-18T03:17:26;8.80;99.90
254;DHT22;590;48.772;8.846;2022-11-18T03:20:05;8.80;99.90
254;DHT22;590;48.772;8.846;2022-11-18T03:22:37;8.80;99.90
254;DHT22;590;48.772;8.846;2022-11-18T03:25:11;8.80;99.90
254;DHT22;590;48.772;8.846;2022-11-18T03:27:45;8.80;99.90
254;DHT22;590;48.772;8.846;2022-11-18T03:30:20;8.80;99.90
254;DHT22;590;48.772;8.846;2022-11-18T03:32:51;8.80;99.90
254;DHT22;590;48.772;8.846;2022-11-18T03:35:23;8.80;99.90
254;DHT22;590;48.772;8.846;2022-11-18T03:37:56;8.80;99.90
254;DHT22;590;48.772;8.846;2022-11-18T03:40:28;8.80;99.90
254;DHT22;590;48.772;8.846;2022-11-18T03:43:03;8.70;99.90
254;DHT22;590;48.772;8.846;2022-11-18T03:45:35;8.70;99.90
254;DHT22;590;48.772;8.846;2022-11-18T03:48:08;8.70;99.90
254;DHT22;590;48.772;8.846;2022-11-18T03:50:41;8.70;99.90
254;DHT22;590;48.772;8.846;2022-11-18T03:53:10;8.70;99.90
254;DHT22;590;48.772;8.846;2022-11-18T03:55:40;8.70;99.90
254;DHT22;590;48.772;8.846;2022-11-18T03:58:12;8.70;99.90
254;DHT22;590;48.772;8.846;2022-11-18T04:00:46;8.70;99.90
254;DHT22;590;48.772;8.846;2022-11-18T04:03:15;8.60;99.90
254;DHT22;590;48.772;8.846;2022-11-18T04:05:43;8.60;99.90
254;DHT22;590;48.772;8.846;2022-11-18T04:08:15;8.60;99.90
254;DHT22;590;48.772;8.846;2022-11-18T04:10:49;8.60;99.90
254;DHT22;590;48.772;8.846;2022-11-18T04:13:21;8.50;99.90
254;DHT22;590;48.772;8.846;2022-11-18T04:15:53;8.50;99.90
254;DHT22;590;48.772;8.846;2022-11-18T04:18:21;8.50;99.90
254;DHT22;590;48.772;8.846;2022-11-18T04:20:49;8.50;99.90
254;DHT22;590;48.772;8.846;2022-11-18T04:23:17;8.50;99.90
254;DHT22;590;48.772;8.846;2022-11-18T04:25:45;8.50;99.90
254;DHT22;590;48.772;8.846;2022-11-18T04:28:13;8.50;99.90
254;DHT22;590;48.772;8.846;2022-11-18T04:30:41;8.50;99.90
254;DHT22;590;48.772;8.846;2022-11-18T04:33:11;8.50;99.90
254;DHT22;590;48.772;8.846;2022-11-18T04:35:39;8.40;99.90
254;DHT22;590;48.772;8.846;2022-11-18T04:38:07;8.40;99.90
254;DHT22;590;48.772;8.846;2022-11-18T04:40:35;8.40;99.90
254;DHT22;590;48.772;8.846;2022-11-18T04:43:03;8.40;99.90
254;DHT22;590;48.772;8.846;2022-11-18T04:45:31;8.40;99.90
254;DHT22;590;48.772;8.846;2022-11-18T04:47:59;8.40;99.90
254;DHT22;590;48.772;8.846;2022-11-18T04:50:31;8.40;99.90
254;DHT22;590;48.772;8.846;2022-11-18T04:52:59;8.40;99.90
254;DHT22;590;48.772;8.846;2022-11-18T04:55:27;8.40;99.90
254;DHT22;590;48.772;8.846;2022-11-18T04:57:55;8.30;99.90
254;DHT22;590;48.772;8.846;2022-11-18T05:00:22;8.30;99.90
254;DHT22;590;48.772;8.846;2022-11-18T05:02:50;8.30;99.90
254;DHT22;590;48.772;8.846;2022-11-18T05:05:18;8.30;99.90
254;DHT22;590;48.772;8.846;2022-11-18T05:07:48;8.30;99.90
254;DHT22;590;48.772;8.846;2022-11-18T05:10:17;8.30;99.90
254;DHT22;590;48.772;8.846;2022-11-18T05:12:45;8.30;99.90
254;DHT22;590;48.772;8.846;2022-11-18T05:15:15;8.30;99.90
254;DHT22;590;48.772;8.846;2022-11-18T05:17:43;8.20;99.90
254;DHT22;590;48.772;8.846;2022-11-18T05:20:12;8.20;99.90
254;DHT22;590;48.772;8.846;2022-11-18T05:22:40;8.20;99.90
254;DHT22;590;48.772;8.846;2022-11-18T05:25:09;8.20;99.90
254;DHT22;590;48.772;8.846;2022-11-18T05:27:37;8.20;99.90
254;DHT22;590;48.772;8.846;2022-11-18T05:30:06;8.20;99.90
254;DHT22;590;48.772;8.846;2022-11-18T05:32:35;8.30;99.90
254;DHT22;590;48.772;8.846;2022-11-18T05:35:03;8.30;99.90
254;DHT22;590;48.772;8.846;2022-11-18T05:37:31;8.30;99.90
254;DHT22;590;48.772;8.846;2022-11-18T05:39:59;8.30;99.90
254;DHT22;590;48.772;8.846;2022-11-18T05:42:29;8.20;99.90
254;DHT22;590;48.772;8.846;2022-11-18T05:45:14;8.20;99.90
254;DHT22;590;48.772;8.846;2022-11-18T05:47:45;8.20;99.90
254;DHT22;590;48.772;8.846;2022-11-18T05:50:30;8.20;99.90
254;DHT22;590;48.772;8.846;2022-11-18T05:52:59;8.10;99.90
254;DHT22;590;48.772;8.846;2022-11-18T05:55:30;8.10;99.90
254;DHT22;590;48.772;8.846;2022-11-18T05:58:01;8.10;99.90
254;DHT22;590;48.772;8.846;2022-11-18T06:00:30;8.10;99.90
254;DHT22;590;48.772;8.846;2022-11-18T06:02:59;8.00;99.90
254;DHT22;590;48.772;8.846;2022-11-18T06:05:28;8.00;99.90
254;DHT22;590;48.772;8.846;2022-11-18T06:07:56;8.00;99.90
254;DHT22;590;48.772;8.846;2022-11-18T06:10:28;8.00;99.90
254;DHT22;590;48.772;8.846;2022-11-18T06:13:02;8.00;99.90
254;DHT22;590;48.772;8.846;2022-11-18T06:15:45;8.00;99.90
254;DHT22;590;48.772;8.846;2022-11-18T06:18:17;7.90;99.90
254;DHT22;590;48.772;8.846;2022-11-18T06:20:47;8.00;99.90
254;DHT22;590;48.772;8.846;2022-11-18T06:23:15;8.00;99.90
254;DHT22;590;48.772;8.846;2022-11-18T06:25:44;8.00;99.90
254;DHT22;590;48.772;8.846;2022-11-18T06:28:14;8.00;99.90
254;DHT22;590;48.772;8.846;2022-11-18T06:30:43;8.00;99.90
254;DHT22;590;48.772;8.846;2022-11-18T06:33:11;8.00;99.90
254;DHT22;590;48.772;8.846;2022-11-18T06:35:41;8.00;99.90
254;DHT22;590;48.772;8.846;2022-11-18T06:38:09;8.00;99.90
254;DHT22;590;48.772;8.846;2022-11-18T06:40:37;8.00;99.90
254;DHT22;590;48.772;8.846;2022-11-18T06:43:05;8.10;99.90
254;DHT22;590;48.772;8.846;2022-11-18T06:45:52;8.00;99.90
254;DHT22;590;48.772;8.846;2022-11-18T06:48:41;8.00;99.90
254;DHT22;590;48.772;8.846;2022-11-18T06:51:09;8.10;99.90
254;DHT22;590;48.772;8.846;2022-11-18T06:53:38;8.10;99.90
254;DHT22;590;48.772;8.846;2022-11-18T06:56:07;8.10;99.90
254;DHT22;590;48.772;8.846;2022-11-18T06:58:35;8.10;99.90
254;DHT22;590;48.772;8.846;2022-11-18T07:01:10;8.10;99.90
254;DHT22;590;48.772;8.846;2022-11-18T07:03:38;8.10;99.90
254;DHT22;590;48.772;8.846;2022-11-18T07:06:07;8.10;99.90
254;DHT22;590;48.772;8.846;2022-11-18T07:08:37;8.10;99.90
254;DHT22;590;48.772;8.846;2022-11-18T07:11:07;8.10;99.90
254;DHT22;590;48.772;8.846;2022-11-18T07:13:35;8.20;99.90
254;DHT22;590;48.772;8.846;2022-11-18T07:16:12;8.20;99.90
254;DHT22;590;48.772;8.846;2022-11-18T07:18:41;8.20;99.90
254;DHT22;590;48.772;8.846;2022-11-18T07:21:11;8.20;99.90
254;DHT22;590;48.772;8.846;2022-11-18T07:23:39;8.30;99.90
254;DHT22;590;48.772;8.846;2022-11-18T07:26:08;8.20;99.90
254;DHT22;590;48.772;8.846;2022-11-18T07:28:36;8.30;99.90
254;DHT22;590;48.772;8.846;2022-11-18T07:31:06;8.30;99.90
254;DHT22;590;48.772;8.846;2022-11-18T07:33:36;8.30;99.90
254;DHT22;590;48.772;8.846;2022-11-18T07:36:06;8.30;99.90
254;DHT22;590;48.772;8.846;2022-11-18T07:38:34;8.40;99.90
254;DHT22;590;48.772;8.846;2022-11-18T07:41:04;8.40;99.90
254;DHT22;590;48.772;8.846;2022-11-18T07:43:32;8.40;99.90
254;DHT22;590;48.772;8.846;2022-11-18T07:46:09;8.40;99.90
254;DHT22;590;48.772;8.846;2022-11-18T07:48:38;8.40;99.90
254;DHT22;590;48.772;8.846;2022-11-18T07:51:07;8.40;99.90
254;DHT22;590;48.772;8.846;2022-11-18T07:53:35;8.50;99.90
254;DHT22;590;48.772;8.846;2022-11-18T07:56:05;8.50;99.90
254;DHT22;590;48.772;8.846;2022-11-18T07:58:33;8.50;99.90
254;DHT22;590;48.772;8.846;2022-11-18T08:01:06;8.60;99.90
254;DHT22;590;48.772;8.846;2022-11-18T08:03:34;8.60;99.90
254;DHT22;590;48.772;8.846;2022-11-18T08:06:04;8.60;99.90
254;DHT22;590;48.772;8.846;2022-11-18T08:08:33;8.60;99.90
254;DHT22;590;48.772;8.846;2022-11-18T08:11:03;8.70;99.90
254;DHT22;590;48.772;8.846;2022-11-18T08:13:32;8.70;99.90
254;DHT22;590;48.772;8.846;2022-11-18T08:16:00;8.80;99.90
254;DHT22;590;48.772;8.846;2022-11-18T08:18:29;8.70;99.90
254;DHT22;590;48.772;8.846;2022-11-18T08:21:01;8.80;99.90
254;DHT22;590;48.772;8.846;2022-11-18T08:23:31;8.80;99.90
254;DHT22;590;48.772;8.846;2022-11-18T08:26:08;8.90;99.90
254;DHT22;590;48.772;8.846;2022-11-18T08:28:36;8.90;99.90
254;DHT22;590;48.772;8.846;2022-11-18T08:31:09;9.00;99.90
254;DHT22;590;48.772;8.846;2022-11-18T08:33:37;9.00;99.90
254;DHT22;590;48.772;8.846;2022-11-18T08:36:06;9.10;99.90
254;DHT22;590;48.772;8.846;2022-11-18T08:38:36;9.20;99.90
254;DHT22;590;48.772;8.846;2022-11-18T08:41:04;9.20;99.90
254;DHT22;590;48.772;8.846;2022-11-18T08:43:34;9.20;99.90
254;DHT22;590;48.772;8.846;2022-11-18T08:46:02;9.30;99.90
254;DHT22;590;48.772;8.846;2022-11-18T08:48:30;9.30;99.90
254;DHT22;590;48.772;8.846;2022-11-18T08:50:58;9.30;99.90
254;DHT22;590;48.772;8.846;2022-11-18T08:53:27;9.30;99.90
254;DHT22;590;48.772;8.846;2022-11-18T08:55:56;9.40;99.90
254;DHT22;590;48.772;8.846;2022-11-18T08:58:25;9.40;99.90
254;DHT22;590;48.772;8.846;2022-11-18T09:00:53;9.50;99.90
254;DHT22;590;48.772;8.846;2022-11-18T09:03:22;9.60;99.90
254;DHT22;590;48.772;8.846;2022-11-18T09:05:50;9.60;99.90
254;DHT22;590;48.772;8.846;2022-11-18T09:08:18;9.60;99.90
254;DHT22;590;48.772;8.846;2022-11-18T09:10:47;9.70;99.90
254;DHT22;590;48.772;8.846;2022-11-18T09:13:16;9.70;99.90
254;DHT22;590;48.772;8.846;2022-11-18T09:16:06;9.70;99.90
254;DHT22;590;48.772;8.846;2022-11-18T09:18:34;9.70;99.90
254;DHT22;590;48.772;8.846;2022-11-18T09:21:04;9.80;99.90
254;DHT22;590;48.772;8.846;2022-11-18T09:23:35;9.90;99.90
254;DHT22;590;48.772;8.846;2022-11-18T09:26:05;9.90;99.90
254;DHT22;590;48.772;8.846;2022-11-18T09:28:35;10.00;99.90
254;DHT22;590;48.772;8.846;2022-11-18T09:31:04;10.20;99.90
254;DHT22;590;48.772;8.846;2022-11-18T09:33:33;10.30;99.90
254;DHT22;590;48.772;8.846;2022-11-18T09:36:01;10.40;99.90
254;DHT22;590;48.772;8.846;2022-11-18T09:38:30;10.40;99.90
254;DHT22;590;48.772;8.846;2022-11-18T09:41:04;10.40;99.90
254;DHT22;590;48.772;8.846;2022-11-18T09:43:44;10.50;99.90
254;DHT22;590;48.772;8.846;2022-11-18T09:46:21;10.50;99.90
254;DHT22;590;48.772;8.846;2022-11-18T09:48:50;10.40;99.90
254;DHT22;590;48.772;8.846;2022-11-18T09:51:38;10.40;99.90
254;DHT22;590;48.772;8.846;2022-11-18T09:54:10;10.30;99.90
254;DHT22;590;48.772;8.846;2022-11-18T09:56:39;10.30;99.90
254;DHT22;590;48.772;8.846;2022-11-18T09:59:12;10.30;99.90
254;DHT22;590;48.772;8.846;2022-11-18T10:01:41;10.30;99.90
254;DHT22;590;48.772;8.846;2022-11-18T10:04:13;10.30;99.90
254;DHT22;590;48.772;8.846;2022-11-18T10:06:43;10.30;99.90
254;DHT22;590;48.772;8.846;2022-11-18T10:09:29;10.40;99.90
254;DHT22;590;48.772;8.846;2022-11-18T10:12:13;10.50;99.90
254;DHT22;590;48.772;8.846;2022-11-18T10:15:00;10.50;99.90
254;DHT22;590;48.772;8.846;2022-11-18T10:17:36;10.60;99.90
254;DHT22;590;48.772;8.846;2022-11-18T10:20:20;10.60;99.90
254;DHT22;590;48.772;8.846;2022-11-18T10:22:53;10.70;99.90
254;DHT22;590;48.772;8.846;2022-11-18T10:25:23;10.80;99.90
254;DHT22;590;48.772;8.846;2022-11-18T10:27:51;10.90;99.90
254;DHT22;590;48.772;8.846;2022-11-18T10:30:23;10.90;99.90
254;DHT22;590;48.772;8.846;2022-11-18T10:32:54;10.90;99.90
254;DHT22;590;48.772;8.846;2022-11-18T10:35:31;10.90;99.90
254;DHT22;590;48.772;8.846;2022-11-18T10:38:04;10.90;99.90
254;DHT22;590;48.772;8.846;2022-11-18T10:40:36;10.90;99.90
254;DHT22;590;48.772;8.846;2022-11-18T10:43:08;11.00;99.90
254;DHT22;590;48.772;8.846;2022-11-18T10:45:38;11.20;99.90
254;DHT22;590;48.772;8.846;2022-11-18T10:48:08;11.30;99.90
254;DHT22;590;48.772;8.846;2022-11-18T10:50:38;11.30;99.90
254;DHT22;590;48.772;8.846;2022-11-18T10:53:27;11.30;99.90
254;DHT22;590;48.772;8.846;2022-11-18T10:55:57;11.30;99.90
254;DHT22;590;48.772;8.846;2022-11-18T10:58:25;11.20;99.90
254;DHT22;590;48.772;8.846;2022-11-18T11:01:05;11.20;99.90
254;DHT22;590;48.772;8.846;2022-11-18T11:03:35;11.10;99.90
254;DHT22;590;48.772;8.846;2022-11-18T11:06:21;11.10;99.90
254;DHT22;590;48.772;8.846;2022-11-18T11:08:50;11.10;99.90
254;DHT22;590;48.772;8.846;2022-11-18T11:11:22;11.20;99.90
254;DHT22;590;48.772;8.846;2022-11-18T11:14:00;11.40;99.90
254;DHT22;590;48.772;8.846;2022-11-18T11:16:33;11.50;99.90
254;DHT22;590;48.772;8.846;2022-11-18T11:19:04;11.60;99.90
254;DHT22;590;48.772;8.846;2022-11-18T11:21:36;11.60;99.90
254;DHT22;590;48.772;8.846;2022-11-18T11:24:09;11.50;99.90
254;DHT22;590;48.772;8.846;2022-11-18T11:26:50;11.40;99.90
254;DHT22;590;48.772;8.846;2022-11-18T11:36:00;11.20;99.90
254;DHT22;590;48.772;8.846;2022-11-18T11:38:38;11.20;99.90
254;DHT22;590;48.772;8.846;2022-11-18T11:41:15;11.20;99.90
254;DHT22;590;48.772;8.846;2022-11-18T11:43:56;11.30;99.90
254;DHT22;590;48.772;8.846;2022-11-18T11:46:32;11.30;99.90
254;DHT22;590;48.772;8.846;2022-11-18T11:49:15;11.20;99.90
254;DHT22;590;48.772;8.846;2022-11-18T11:51:49;11.20;99.90
254;DHT22;590;48.772;8.846;2022-11-18T11:54:32;11.10;99.90
254;DHT22;590;48.772;8.846;2022-11-18T11:57:13;10.90;99.90
254;DHT22;590;48.772;8.846;2022-11-18T11:59:47;10.80;99.90
254;DHT22;590;48.772;8.846;2022-11-18T12:02:48;10.60;99.90
254;DHT22;590;48.772;8.846;2022-11-18T12:05:26;10.50;99.90
254;DHT22;590;48.772;8.846;2022-11-18T12:08:00;10.40;99.90
254;DHT22;590;48.772;8.846;2022-11-18T12:10:43;10.40;99.90
254;DHT22;590;48.772;8.846;2022-11-18T12:13:24;10.30;99.90
254;DHT22;590;48.772;8.846;2022-11-18T12:16:20;10.20;99.90
254;DHT22;590;48.772;8.846;2022-11-18T12:18:53;10.20;99.90
254;DHT22;590;48.772;8.846;2022-11-18T12:21:54;10.20;99.90
254;DHT22;590;48.772;8.846;2022-11-18T12:24:29;10.30;99.90
254;DHT22;590;48.772;8.846;2022-11-18T12:27:04;10.40;99.90
254;DHT22;590;48.772;8.846;2022-11-18T12:29:40;10.50;99.90
254;DHT22;590;48.772;8.846;2022-11-18T12:32:28;10.70;99.90
254;DHT22;590;48.772;8.846;2022-11-18T12:35:02;10.80;99.90
254;DHT22;590;48.772;8.846;2022-11-18T12:37:43;10.90;99.90
254;DHT22;590;48.772;8.846;2022-11-18T12:40:30;11.10;99.90
254;DHT22;590;48.772;8.846;2022-11-18T12:42:59;11.20;99.90
254;DHT22;590;48.772;8.846;2022-11-18T12:45:58;11.20;99.90
254;DHT22;590;48.772;8.846;2022-11-18T12:48:34;11.20;99.90
254;DHT22;590;48.772;8.846;2022-11-18T12:51:39;11.30;99.90
254;DHT22;590;48.772;8.846;2022-11-18T12:54:36;11.30;99.90
254;DHT22;590;48.772;8.846;2022-11-18T12:57:14;11.30;99.90
254;DHT22;590;48.772;8.846;2022-11-18T12:59:44;11.30;99.90
254;DHT22;590;48.772;8.846;2022-11-18T13:02:22;11.20;99.90
254;DHT22;590;48.772;8.846;2022-11-18T13:05:08;11.10;99.90
254;DHT22;590;48.772;8.846;2022-11-18T13:07:42;11.00;99.90
254;DHT22;590;48.772;8.846;2022-11-18T13:10:38;10.90;99.90
254;DHT22;590;48.772;8.846;2022-11-18T13:13:18;10.80;99.90
254;DHT22;590;48.772;8.846;2022-11-18T13:15:48;10.80;99.90
254;DHT22;590;48.772;8.846;2022-11-18T13:18:46;10.90;99.90
254;DHT22;590;48.772;8.846;2022-11-18T13:21:21;10.90;99.90
254;DHT22;590;48.772;8.846;2022-11-18T13:24:10;10.90;99.90
254;DHT22;590;48.772;8.846;2022-11-18T13:26:42;10.90;99.90
254;DHT22;590;48.772;8.846;2022-11-18T13:29:23;10.90;99.90
254;DHT22;590;48.772;8.846;2022-11-18T13:32:02;10.80;99.90
254;DHT22;590;48.772;8.846;2022-11-18T13:34:42;10.80;99.90
254;DHT22;590;48.772;8.846;2022-11-18T13:37:16;10.90;99.90
254;DHT22;590;48.772;8.846;2022-11-18T13:39:45;10.90;99.90
254;DHT22;590;48.772;8.846;2022-11-18T13:42:18;10.90;99.90
254;DHT22;590;48.772;8.846;2022-11-18T13:44:52;10.80;99.90
254;DHT22;590;48.772;8.846;2022-11-18T13:47:27;10.80;99.90
254;DHT22;590;48.772;8.846;2022-11-18T13:50:04;10.80;99.90
254;DHT22;590;48.772;8.846;2022-11-18T13:52:37;10.70;99.90
254;DHT22;590;48.772;8.846;2022-11-18T13:55:08;10.60;99.90
254;DHT22;590;48.772;8.846;2022-11-18T13:57:40;10.60;99.90
254;DHT22;590;48.772;8.846;2022-11-18T14:00:21;10.50;99.90
254;DHT22;590;48.772;8.846;2022-11-18T14:02:58;10.50;99.90
254;DHT22;590;48.772;8.846;2022-11-18T14:05:27;10.40;99.90
254;DHT22;590;48.772;8.846;2022-11-18T14:08:01;10.40;99.90
254;DHT22;590;48.772;8.846;2022-11-18T14:10:32;10.30;99.90
254;DHT22;590;48.772;8.846;2022-11-18T14:13:17;10.30;99.90
254;DHT22;590;48.772;8.846;2022-11-18T14:15:45;10.20;99.90
254;DHT22;590;48.772;8.846;2022-11-18T14:18:18;10.20;99.90
254;DHT22;590;48.772;8.846;2022-11-18T14:20:51;10.10;99.90
254;DHT22;590;48.772;8.846;2022-11-18T14:23:25;10.10;99.90
254;DHT22;590;48.772;8.846;2022-11-18T14:25:53;10.10;99.90
254;DHT22;590;48.772;8.846;2022-11-18T14:28:26;10.00;99.90
254;DHT22;590;48.772;8.846;2022-11-18T14:30:59;10.00;99.90
254;DHT22;590;48.772;8.846;2022-11-18T14:33:28;10.00;99.90
254;DHT22;590;48.772;8.846;2022-11-18T14:35:58;9.90;99.90
254;DHT22;590;48.772;8.846;2022-11-18T14:38:41;9.80;99.90
254;DHT22;590;48.772;8.846;2022-11-18T14:41:30;9.80;99.90
254;DHT22;590;48.772;8.846;2022-11-18T14:44:18;9.80;99.90
254;DHT22;590;48.772;8.846;2022-11-18T14:46:49;9.80;99.90
254;DHT22;590;48.772;8.846;2022-11-18T14:49:21;9.80;99.90
254;DHT22;590;48.772;8.846;2022-11-18T14:51:50;9.80;99.90
254;DHT22;590;48.772;8.846;2022-11-18T14:54:20;9.90;99.90
254;DHT22;590;48.772;8.846;2022-11-18T14:56:54;9.90;99.90
254;DHT22;590;48.772;8.846;2022-11-18T14:59:25;9.90;99.90
254;DHT22;590;48.772;8.846;2022-11-18T15:01:53;9.90;99.90
254;DHT22;590;48.772;8.846;2022-11-18T15:04:22;9.90;99.90
254;DHT22;590;48.772;8.846;2022-11-18T15:06:51;9.90;99.90
254;DHT22;590;48.772;8.846;2022-11-18T15:09:19;9.80;99.90
254;DHT22;590;48.772;8.846;2022-11-18T15:11:47;9.80;99.90
254;DHT22;590;48.772;8.846;2022-11-18T15:14:15;9.80;99.90
254;DHT22;590;48.772;8.846;2022-11-18T15:16:45;9.70;99.90
254;DHT22;590;48.772;8.846;2022-11-18T15:19:14;9.70;99.90
254;DHT22;590;48.772;8.846;2022-11-18T15:21:42;9.70;99.90
254;DHT22;590;48.772;8.846;2022-11-18T15:24:11;9.70;99.90
254;DHT22;590;48.772;8.846;2022-11-18T15:26:40;9.60;99.90
254;DHT22;590;48.772;8.846;2022-11-18T15:29:14;9.60;99.90
254;DHT22;590;48.772;8.846;2022-11-18T15:31:42;9.60;99.90
254;DHT22;590;48.772;8.846;2022-11-18T15:34:14;9.50;99.90
254;DHT22;590;48.772;8.846;2022-11-18T15:36:43;9.50;99.90
254;DHT22;590;48.772;8.846;2022-11-18T15:39:11;9.40;99.90
254;DHT22;590;48.772;8.846;2022-11-18T15:41:40;9.40;99.90
254;DHT22;590;48.772;8.846;2022-11-18T15:44:09;9.30;99.90
254;DHT22;590;48.772;8.846;2022-11-18T15:46:37;9.20;99.90
254;DHT22;590;48.772;8.846;2022-11-18T15:49:06;9.20;99.90
254;DHT22;590;48.772;8.846;2022-11-18T15:51:40;9.10;99.90
254;DHT22;590;48.772;8.846;2022-11-18T15:54:07;9.00;99.90
254;DHT22;590;48.772;8.846;2022-11-18T15:56:36;9.00;99.90
254;DHT22;590;48.772;8.846;2022-11-18T15:59:08;8.90;99.90
254;DHT22;590;48.772;8.846;2022-11-18T16:01:37;8.80;99.90
254;DHT22;590;48.772;8.846;2022-11-18T16:04:07;8.80;99.90
254;DHT22;590;48.772;8.846;2022-11-18T16:06:36;8.70;99.90
254;DHT22;590;48.772;8.846;2022-11-18T16:09:06;8.60;99.90
254;DHT22;590;48.772;8.846;2022-11-18T16:11:34;8.50;99.90
254;DHT22;590;48.772;8.846;2022-11-18T16:14:20;8.40;99.90
254;DHT22;590;48.772;8.846;2022-11-18T16:16:50;8.30;99.90
254;DHT22;590;48.772;8.846;2022-11-18T16:19:21;8.30;99.90
254;DHT22;590;48.772;8.846;2022-11-18T16:21:53;8.20;99.90
254;DHT22;590;48.772;8.846;2022-11-18T16:24:24;8.10;99.90
254;DHT22;590;48.772;8.846;2022-11-18T16:26:52;8.00;99.90
254;DHT22;590;48.772;8.846;2022-11-18T16:29:21;8.00;99.90
254;DHT22;590;48.772;8.846;2022-11-18T16:31:50;7.90;99.90
254;DHT22;590;48.772;8.846;2022-11-18T16:34:20;7.90;99.90
254;DHT22;590;48.772;8.846;2022-11-18T16:36:49;7.90;99.90
254;DHT22;590;48.772;8.846;2022-11-18T16:39:19;7.80;99.90
254;DHT22;590;48.772;8.846;2022-11-18T16:41:51;7.80;99.90
254;DHT22;590;48.772;8.846;2022-11-18T16:44:19;7.80;99.90
254;DHT22;590;48.772;8.846;2022-11-18T16:46:48;7.80;99.90
254;DHT22;590;48.772;8.846;2022-11-18T16:49:25;7.80;99.90
254;DHT22;590;48.772;8.846;2022-11-18T16:52:11;7.70;99.90
254;DHT22;590;48.772;8.846;2022-11-18T16:54:43;7.60;99.90
254;DHT22;590;48.772;8.846;2022-11-18T16:57:16;7.50;99.90
254;DHT22;590;48.772;8.846;2022-11-18T16:59:44;7.50;99.90
254;DHT22;590;48.772;8.846;2022-11-18T17:02:13;7.50;99.90
254;DHT22;590;48.772;8.846;2022-11-18T17:04:47;7.50;99.90
254;DHT22;590;48.772;8.846;2022-11-18T17:07:18;7.40;99.90
254;DHT22;590;48.772;8.846;2022-11-18T17:12:50;7.30;99.90
254;DHT22;590;48.772;8.846;2022-11-18T17:15:26;7.20;99.90
254;DHT22;590;48.772;8.846;2022-11-18T17:17:57;7.20;99.90
254;DHT22;590;48.772;8.846;2022-11-18T17:20:25;7.10;99.90
254;DHT22;590;48.772;8.846;2022-11-18T17:22:55;7.10;99.90
254;DHT22;590;48.772;8.846;2022-11-18T17:25:28;7.00;99.90
254;DHT22;590;48.772;8.846;2022-11-18T17:28:01;7.00;99.90
254;DHT22;590;48.772;8.846;2022-11-18T17:30:29;7.00;99.90
254;DHT22;590;48.772;8.846;2022-11-18T17:32:57;7.00;99.90
254;DHT22;590;48.772;8.846;2022-11-18T17:35:25;7.00;99.90
254;DHT22;590;48.772;8.846;2022-11-18T17:37:53;7.00;99.90